Terminal Aerodrome Forecast
Issued by NWS

Home | Current Version | Previous Version | Text Only | Print | Product List | Glossary Off
Versions: 1 2 3 4 5 6 7 8 9 10 11 12 13 14 15 16

646
FTUS43 KABR 271134
TAFMBG
TAF
KMBG 271134Z 2712/2812 07006KT P6SM BKN100
     FM271500 12009KT P6SM BKN200
     FM272300 04008KT P6SM BKN070
     FM280500 04010KT P6SM OVC015
     FM280900 02011KT P6SM OVC008=

USA.gov is the U.S. government's official web portal to all federal, state and local government web resources and services.